Decoded Metar for KHYS (HAYS MUNI in KS, USA) (IATA:HYS) | Meteo·Mobile Aviation Weather
aviador You're here:

KHYS Decoded Metar

HAYS MUNI in KS, USA
Report Time2019-09-21 02:56:00
UTC Time2019-09-21 03:10:54
Flight Rules vfr VFR
Wind160° at 17 Gusting to 22 kt
W.Decomp.*RWY 16: 16.8 kt HW 2.4 kt LCW
RWY 22: 6.4 kt HW 15.8 kt LCW
Visibility9999 m
Phenomena:N/A
Clouds:N/A
Expected CloudBase > 2,000 ft AGL from Temp-Dew spread
CeilingNone
Temp24°C (ISA +13)
Dew Point19°C (74% RH)
AAT21.1°C
QNH1010 hPa
Density Alt3,898 ft
Elevation1,998 ft
Report Wrong Elevation
Raw Report
KHYS 210256Z AUTO 16017G22KT 10SM CLR 24/19 A2984 RMK AO2 SLP087
T02440194 51004=

Extra information for KHYS:More info

Metar Taf Metar & Taf Last 4 Metars F.Rules Stats Wind Profile Meteogram Temp Stats Airport Information Weather charts Add Link Nearby VenuesMetar ALERT Operation Metar Decoded Social comments

AIRNAV info for KHYS